createdAt,value
2023-01-17T00:01:20.409Z,35.14
2023-01-17T00:03:46.946Z,35.04
2023-01-17T00:06:13.345Z,34.99
2023-01-17T00:08:39.706Z,34.90
2023-01-17T00:11:06.082Z,34.95
2023-01-17T00:13:32.427Z,35.05
2023-01-17T00:15:58.834Z,34.96
2023-01-17T00:18:25.317Z,34.85
2023-01-17T00:20:51.683Z,35.03
2023-01-17T00:23:18.041Z,35.13
2023-01-17T00:25:44.399Z,34.88
2023-01-17T00:28:10.896Z,35.04
2023-01-17T00:30:37.260Z,35.05
2023-01-17T00:33:03.638Z,35.10
2023-01-17T00:35:30.019Z,34.82
2023-01-17T00:37:56.521Z,35.06
2023-01-17T00:40:22.900Z,35.28
2023-01-17T00:42:49.275Z,34.89
2023-01-17T00:45:15.654Z,34.95
2023-01-17T00:47:42.018Z,34.84
2023-01-17T00:50:08.421Z,34.81
2023-01-17T00:52:34.781Z,34.89
2023-01-17T00:55:01.175Z,34.76
2023-01-17T00:57:27.537Z,34.87
2023-01-17T00:59:53.879Z,35.02
2023-01-17T01:02:20.270Z,34.80
2023-01-17T01:04:46.633Z,35.04
2023-01-17T01:07:13.042Z,35.09
2023-01-17T01:09:39.404Z,34.77
2023-01-17T01:12:05.767Z,34.65
2023-01-17T01:14:32.196Z,34.73
2023-01-17T01:16:58.550Z,34.83
2023-01-17T01:19:24.956Z,34.78
2023-01-17T01:21:51.443Z,35.07
2023-01-17T01:24:17.803Z,34.68
2023-01-17T01:26:44.178Z,34.62
2023-01-17T01:29:10.568Z,34.74
2023-01-17T01:31:36.963Z,34.74
2023-01-17T01:34:03.345Z,34.57
2023-01-17T01:36:29.714Z,34.76
2023-01-17T01:38:56.094Z,34.89
2023-01-17T01:41:22.479Z,34.59
2023-01-17T01:43:48.849Z,34.53
2023-01-17T01:46:15.221Z,34.66
2023-01-17T01:48:41.585Z,34.68
2023-01-17T01:51:07.947Z,34.59
2023-01-17T01:53:34.313Z,34.58
2023-01-17T01:56:00.674Z,34.58
2023-01-17T01:58:27.030Z,34.75
2023-01-17T02:00:53.453Z,34.82
2023-01-17T02:03:19.868Z,34.44
2023-01-17T02:05:46.249Z,34.62
2023-01-17T02:08:12.650Z,34.60
2023-01-17T02:10:39.012Z,34.84
2023-01-17T02:13:05.392Z,34.60
2023-01-17T02:15:31.773Z,34.46
2023-01-17T02:17:58.128Z,34.66
2023-01-17T02:20:24.486Z,34.50
2023-01-17T02:22:50.856Z,34.66
2023-01-17T02:25:17.200Z,34.45
2023-01-17T02:27:43.571Z,34.54
2023-01-17T02:30:10.043Z,34.62
2023-01-17T02:32:36.423Z,34.55
2023-01-17T02:35:02.790Z,34.61
2023-01-17T02:37:29.253Z,34.34
2023-01-17T02:39:55.643Z,34.38
2023-01-17T02:42:21.996Z,34.46
2023-01-17T02:44:48.375Z,34.57
2023-01-17T02:47:14.764Z,34.42
2023-01-17T02:49:41.137Z,34.48
2023-01-17T02:52:07.640Z,34.60
2023-01-17T02:54:34.021Z,34.33
2023-01-17T02:57:00.391Z,34.61
2023-01-17T02:59:26.740Z,34.58
2023-01-17T03:01:53.227Z,34.38
2023-01-17T03:04:19.640Z,34.45
2023-01-17T03:06:46.030Z,34.43
2023-01-17T03:09:12.407Z,34.43
2023-01-17T03:11:38.786Z,34.42
2023-01-17T03:14:05.132Z,34.54
2023-01-17T03:16:31.540Z,34.65
2023-01-17T03:18:57.936Z,34.79
2023-01-17T03:21:24.292Z,34.88
2023-01-17T03:23:50.672Z,34.63
2023-01-17T03:26:17.063Z,34.33
2023-01-17T03:28:43.426Z,34.64
2023-01-17T03:31:09.801Z,34.52
2023-01-17T03:33:36.183Z,34.69
2023-01-17T03:36:02.547Z,34.43
2023-01-17T03:38:28.929Z,34.61
2023-01-17T03:40:55.300Z,34.57
2023-01-17T03:43:21.681Z,34.70
2023-01-17T03:45:48.054Z,34.46
2023-01-17T03:48:14.438Z,34.50
2023-01-17T03:50:40.798Z,34.57
2023-01-17T03:53:07.196Z,34.51
2023-01-17T03:55:33.556Z,34.43
2023-01-17T03:57:59.918Z,34.58
2023-01-17T04:00:26.301Z,34.49
2023-01-17T04:02:52.686Z,34.60
2023-01-17T04:05:19.097Z,34.48
2023-01-17T04:07:45.451Z,34.53
2023-01-17T04:10:11.800Z,34.42
2023-01-17T04:12:38.275Z,34.54
2023-01-17T04:15:04.645Z,34.53
2023-01-17T04:17:30.994Z,34.50
2023-01-17T04:19:57.478Z,34.45
2023-01-17T04:22:23.844Z,34.37
2023-01-17T04:24:50.214Z,34.65
2023-01-17T04:27:16.610Z,34.67
2023-01-17T04:29:44.314Z,34.56
2023-01-17T04:32:12.280Z,34.56
2023-01-17T04:34:38.647Z,34.69
2023-01-17T04:37:05.004Z,34.47
2023-01-17T04:39:31.405Z,34.44
2023-01-17T04:41:57.779Z,34.42
2023-01-17T04:44:24.146Z,34.60
2023-01-17T04:46:50.505Z,34.44
2023-01-17T04:49:16.858Z,34.60
2023-01-17T04:51:43.262Z,34.49
2023-01-17T04:54:09.611Z,34.65
2023-01-17T04:56:35.973Z,34.67
2023-01-17T04:59:02.377Z,34.59
2023-01-17T05:01:28.849Z,34.83
2023-01-17T05:03:55.277Z,34.52
2023-01-17T05:06:21.622Z,34.54
2023-01-17T05:08:48.036Z,34.62
2023-01-17T05:11:14.382Z,34.46
2023-01-17T05:13:40.712Z,34.49
2023-01-17T05:16:07.177Z,34.52
2023-01-17T05:18:33.628Z,34.52
2023-01-17T05:21:00.004Z,34.53
2023-01-17T05:23:26.390Z,34.42
2023-01-17T05:25:52.767Z,34.54
2023-01-17T05:28:19.132Z,34.42
2023-01-17T05:30:45.526Z,34.39
2023-01-17T05:33:11.920Z,34.48
2023-01-17T05:35:38.292Z,34.50
2023-01-17T05:38:04.674Z,34.33
2023-01-17T05:40:31.072Z,34.65
2023-01-17T05:42:57.451Z,34.42
2023-01-17T05:45:23.824Z,34.44
2023-01-17T05:47:50.222Z,34.35
2023-01-17T05:50:16.617Z,34.39
2023-01-17T05:52:42.986Z,34.57
2023-01-17T05:55:09.329Z,34.56
2023-01-17T05:57:35.696Z,34.33
2023-01-17T06:00:02.069Z,34.49
2023-01-17T06:02:28.480Z,34.73
2023-01-17T06:04:55.090Z,34.61
2023-01-17T06:07:21.515Z,34.63
2023-01-17T06:09:47.868Z,34.53
2023-01-17T06:12:14.260Z,34.41
2023-01-17T06:14:40.621Z,34.29
2023-01-17T06:17:06.973Z,34.45
2023-01-17T06:19:33.346Z,34.28
2023-01-17T06:21:59.704Z,34.49
2023-01-17T06:24:26.291Z,34.36
2023-01-17T06:26:52.660Z,34.40
2023-01-17T06:29:19.016Z,34.64
2023-01-17T06:31:45.381Z,34.37
2023-01-17T06:34:11.741Z,34.41
2023-01-17T06:36:38.112Z,34.51
2023-01-17T06:39:04.471Z,34.38
2023-01-17T06:41:30.850Z,34.39
2023-01-17T06:43:57.214Z,34.36
2023-01-17T06:46:23.634Z,34.48
2023-01-17T06:48:50.023Z,34.54
2023-01-17T06:51:16.396Z,34.54
2023-01-17T06:53:42.784Z,34.34
2023-01-17T06:56:09.136Z,34.31
2023-01-17T06:58:35.535Z,34.51
2023-01-17T07:01:02.053Z,34.72
2023-01-17T07:03:28.504Z,34.51
2023-01-17T07:05:54.873Z,34.47
2023-01-17T07:08:21.245Z,34.51
2023-01-17T07:10:47.619Z,34.42
2023-01-17T07:13:14.037Z,34.37
2023-01-17T07:15:40.415Z,34.39
2023-01-17T07:18:06.769Z,34.48
2023-01-17T07:20:33.131Z,34.64
2023-01-17T07:22:59.504Z,34.37
2023-01-17T07:25:27.703Z,34.73
2023-01-17T07:27:54.164Z,34.62
2023-01-17T07:30:20.517Z,34.49
2023-01-17T07:32:46.916Z,34.55
2023-01-17T07:35:13.258Z,34.48
2023-01-17T07:37:39.716Z,34.66
2023-01-17T07:40:06.076Z,34.58
2023-01-17T07:42:32.464Z,34.45
2023-01-17T07:44:58.856Z,34.66
2023-01-17T07:47:25.229Z,34.48
2023-01-17T07:49:51.587Z,34.67
2023-01-17T07:52:18.367Z,34.78
2023-01-17T07:54:44.819Z,34.66
2023-01-17T07:57:11.192Z,34.49
2023-01-17T07:59:37.552Z,34.64
2023-01-17T08:02:03.976Z,34.58
2023-01-17T08:04:30.358Z,34.82
2023-01-17T08:06:56.730Z,34.63
2023-01-17T08:09:23.109Z,34.51
2023-01-17T08:11:49.503Z,34.60
2023-01-17T08:14:15.889Z,34.49
2023-01-17T08:16:42.342Z,34.74
2023-01-17T08:19:08.736Z,34.55
2023-01-17T08:21:35.101Z,34.39
2023-01-17T08:24:01.467Z,34.69
2023-01-17T08:26:27.820Z,34.79
2023-01-17T08:28:54.178Z,34.46
2023-01-17T08:31:20.571Z,34.76
2023-01-17T08:33:46.939Z,34.46
2023-01-17T08:36:13.308Z,34.81
2023-01-17T08:38:39.683Z,34.71
2023-01-17T08:41:06.055Z,34.64
2023-01-17T08:43:32.425Z,34.70
2023-01-17T08:45:58.856Z,34.55
2023-01-17T08:48:25.256Z,34.49
2023-01-17T08:50:51.626Z,34.51
2023-01-17T08:53:17.991Z,34.47
2023-01-17T08:55:44.382Z,34.74
2023-01-17T08:58:10.745Z,34.73
2023-01-17T09:00:37.129Z,34.79
2023-01-17T09:03:03.518Z,34.70
2023-01-17T09:05:29.899Z,34.69
2023-01-17T09:07:56.256Z,34.36
2023-01-17T09:10:22.609Z,34.62
2023-01-17T09:12:49.079Z,34.61
2023-01-17T09:15:15.428Z,34.76
2023-01-17T09:17:41.816Z,34.49
2023-01-17T09:20:08.314Z,34.54
2023-01-17T09:22:34.673Z,34.58
2023-01-17T09:25:01.045Z,34.50
2023-01-17T09:27:27.423Z,34.56
2023-01-17T09:29:53.786Z,34.57
2023-01-17T09:32:20.156Z,34.33
2023-01-17T09:34:46.552Z,34.46
2023-01-17T09:37:12.901Z,34.52
2023-01-17T09:39:39.275Z,34.56
2023-01-17T09:42:05.674Z,34.61
2023-01-17T09:44:32.114Z,34.44
2023-01-17T09:46:58.543Z,34.40
2023-01-17T09:49:24.933Z,34.52
2023-01-17T09:51:51.294Z,34.42
2023-01-17T09:54:17.673Z,34.81
2023-01-17T09:56:44.033Z,34.45
2023-01-17T09:59:10.484Z,34.48
2023-01-17T10:01:37.015Z,34.50
2023-01-17T10:04:03.548Z,34.58
2023-01-17T10:06:29.948Z,34.58
2023-01-17T10:08:56.314Z,34.53
2023-01-17T10:11:22.670Z,34.34
2023-01-17T10:13:49.027Z,34.57
2023-01-17T10:16:15.446Z,34.54
2023-01-17T10:18:41.842Z,34.45
2023-01-17T10:21:08.197Z,34.49
2023-01-17T10:23:34.563Z,34.63
2023-01-17T10:26:00.938Z,34.57
2023-01-17T10:28:27.315Z,34.23
2023-01-17T10:30:53.712Z,34.35
2023-01-17T10:33:20.093Z,34.45
2023-01-17T10:35:46.476Z,34.39
2023-01-17T10:38:12.847Z,34.59
2023-01-17T10:40:39.214Z,34.48
2023-01-17T10:43:05.580Z,34.47
2023-01-17T10:45:31.973Z,34.61
2023-01-17T10:47:58.373Z,34.44
2023-01-17T10:50:24.739Z,34.56
2023-01-17T10:52:51.091Z,34.62
2023-01-17T10:55:17.465Z,34.29
2023-01-17T10:57:43.813Z,34.63
2023-01-17T11:00:10.168Z,34.64
2023-01-17T11:02:36.569Z,34.36
2023-01-17T11:05:02.987Z,34.51
2023-01-17T11:07:29.378Z,34.47
2023-01-17T11:09:55.757Z,34.66
2023-01-17T11:12:22.117Z,34.69
2023-01-17T11:14:48.511Z,34.46
2023-01-17T11:17:14.867Z,34.36
2023-01-17T11:19:41.247Z,34.35
2023-01-17T11:22:07.631Z,34.65
2023-01-17T11:24:34.002Z,34.48
2023-01-17T11:27:00.364Z,34.72
2023-01-17T11:29:26.724Z,34.59
2023-01-17T11:31:53.110Z,34.53
2023-01-17T11:34:19.467Z,34.47
2023-01-17T11:36:45.877Z,34.44
2023-01-17T11:39:12.270Z,34.60
2023-01-17T11:41:38.620Z,34.70
2023-01-17T11:44:05.009Z,34.66
2023-01-17T11:46:31.501Z,34.76
2023-01-17T11:48:57.879Z,34.51
2023-01-17T11:51:24.233Z,34.66
2023-01-17T11:53:50.596Z,34.36
2023-01-17T11:56:16.980Z,34.55
2023-01-17T11:58:43.337Z,34.68
2023-01-17T12:01:09.800Z,34.69
2023-01-17T12:03:36.321Z,34.57
2023-01-17T12:06:02.682Z,34.57
2023-01-17T12:08:29.048Z,34.61
2023-01-17T12:10:55.436Z,34.70
2023-01-17T12:13:21.796Z,34.64
2023-01-17T12:15:48.272Z,34.58
2023-01-17T12:18:14.793Z,34.59
2023-01-17T12:20:41.147Z,34.52
2023-01-17T12:23:07.511Z,34.46
2023-01-17T12:25:33.918Z,34.76
2023-01-17T12:28:00.289Z,34.50
2023-01-17T12:30:26.659Z,34.60
2023-01-17T12:32:53.099Z,34.61
2023-01-17T12:35:19.510Z,34.68
2023-01-17T12:37:45.903Z,34.54
2023-01-17T12:40:12.268Z,34.64
2023-01-17T12:42:38.662Z,34.63
2023-01-17T12:45:05.021Z,34.81
2023-01-17T12:47:31.383Z,34.60
2023-01-17T12:49:57.762Z,34.46
2023-01-17T12:52:24.185Z,34.63
2023-01-17T12:54:50.551Z,34.52
2023-01-17T12:57:16.927Z,34.66
2023-01-17T12:59:43.293Z,34.58
2023-01-17T13:02:09.689Z,34.54
2023-01-17T13:04:38.474Z,34.65
2023-01-17T13:07:08.550Z,34.86
2023-01-17T13:09:34.909Z,34.52
2023-01-17T13:12:01.271Z,34.68
2023-01-17T13:14:27.635Z,34.55
2023-01-17T13:16:53.986Z,34.63
2023-01-17T13:19:20.388Z,34.62
2023-01-17T13:21:47.154Z,34.84
2023-01-17T13:24:13.548Z,34.63
2023-01-17T13:26:39.953Z,34.53
2023-01-17T13:29:06.318Z,34.47
2023-01-17T13:31:32.755Z,34.79
2023-01-17T13:33:59.195Z,34.33
2023-01-17T13:36:25.670Z,34.69
2023-01-17T13:38:52.027Z,34.67
2023-01-17T13:41:18.416Z,34.61
2023-01-17T13:43:44.831Z,34.51
2023-01-17T13:46:11.203Z,34.52
2023-01-17T13:48:37.595Z,34.73
2023-01-17T13:51:04.008Z,34.71
2023-01-17T13:53:30.483Z,34.74
2023-01-17T13:55:56.883Z,34.74
2023-01-17T13:58:23.261Z,34.43
2023-01-17T14:00:49.663Z,34.55
2023-01-17T14:03:16.185Z,34.53
2023-01-17T14:05:42.734Z,34.51
2023-01-17T14:08:09.136Z,34.49
2023-01-17T14:10:35.539Z,34.53
2023-01-17T14:13:01.947Z,34.63
2023-01-17T14:15:28.325Z,34.42
2023-01-17T14:17:54.675Z,34.67
2023-01-17T14:20:21.036Z,34.46
2023-01-17T14:22:47.412Z,34.76
2023-01-17T14:25:21.892Z,34.61
2023-01-17T14:27:48.266Z,34.49
2023-01-17T14:30:14.636Z,34.41
2023-01-17T14:32:41.025Z,34.50
2023-01-17T14:35:07.420Z,34.53
2023-01-17T14:37:33.809Z,34.56
2023-01-17T14:40:00.179Z,34.17
2023-01-17T14:42:26.565Z,34.47
2023-01-17T14:44:52.992Z,34.13
2023-01-17T14:47:19.392Z,34.39
2023-01-17T14:49:45.861Z,34.23
2023-01-17T14:52:12.240Z,34.27
2023-01-17T14:54:38.616Z,34.22
2023-01-17T14:57:05.005Z,34.37
2023-01-17T14:59:31.381Z,34.33
2023-01-17T15:02:07.256Z,34.28
2023-01-17T15:04:34.655Z,34.37
2023-01-17T15:07:01.011Z,34.56
2023-01-17T15:09:27.392Z,34.35
2023-01-17T15:11:53.744Z,34.32
2023-01-17T15:14:20.107Z,34.18
2023-01-17T15:16:46.511Z,34.48
2023-01-17T15:19:12.900Z,34.20
2023-01-17T15:21:39.278Z,34.37
2023-01-17T15:24:05.646Z,34.11
2023-01-17T15:26:32.023Z,34.39
2023-01-17T15:28:58.396Z,34.55
2023-01-17T15:31:24.753Z,34.25
2023-01-17T15:33:51.114Z,34.47
2023-01-17T15:36:17.481Z,34.26
2023-01-17T15:38:43.960Z,34.52
2023-01-17T15:41:10.356Z,34.62
2023-01-17T15:43:36.716Z,34.51
2023-01-17T15:46:03.235Z,34.27
2023-01-17T15:48:29.776Z,34.30
2023-01-17T15:50:56.137Z,34.63
2023-01-17T15:53:22.496Z,34.45
2023-01-17T15:55:48.853Z,34.35
2023-01-17T15:58:15.228Z,34.68
2023-01-17T16:00:41.601Z,34.69
2023-01-17T16:03:07.947Z,34.36
2023-01-17T16:05:34.308Z,34.57
2023-01-17T16:08:00.708Z,34.51
2023-01-17T16:10:27.078Z,34.63
2023-01-17T16:12:54.010Z,34.83
2023-01-17T16:15:20.583Z,34.42
2023-01-17T16:17:46.957Z,34.78
2023-01-17T16:20:13.326Z,34.47
2023-01-17T16:22:39.704Z,34.56
2023-01-17T16:25:06.091Z,34.51
2023-01-17T16:27:32.483Z,34.80
2023-01-17T16:29:58.818Z,34.56
2023-01-17T16:32:25.188Z,34.37
2023-01-17T16:34:51.570Z,34.71
2023-01-17T16:37:17.938Z,34.58
2023-01-17T16:39:44.319Z,34.55
2023-01-17T16:42:10.737Z,34.60
2023-01-17T16:44:37.115Z,34.69
2023-01-17T16:47:03.599Z,34.71
2023-01-17T16:49:29.972Z,34.60
2023-01-17T16:51:56.336Z,34.75
2023-01-17T16:54:22.732Z,34.85
2023-01-17T16:56:49.104Z,34.72
2023-01-17T16:59:15.460Z,34.40
2023-01-17T17:01:41.910Z,34.57
2023-01-17T17:04:08.358Z,34.50
2023-01-17T17:06:34.715Z,34.58
2023-01-17T17:09:01.095Z,34.67
2023-01-17T17:11:27.494Z,34.33
2023-01-17T17:13:53.912Z,34.66
2023-01-17T17:16:20.423Z,34.64
2023-01-17T17:18:46.810Z,34.57
2023-01-17T17:21:13.167Z,34.38
2023-01-17T17:23:39.543Z,34.51
2023-01-17T17:26:05.910Z,34.21
2023-01-17T17:28:32.273Z,34.38
2023-01-17T17:30:58.763Z,34.56
2023-01-17T17:33:25.151Z,34.39
2023-01-17T17:35:51.523Z,34.48
2023-01-17T17:38:17.885Z,34.33
2023-01-17T17:40:44.244Z,34.43
2023-01-17T17:43:10.631Z,34.25
2023-01-17T17:45:37.000Z,34.30
2023-01-17T17:48:03.370Z,34.30
2023-01-17T17:50:29.743Z,34.30
2023-01-17T17:52:56.114Z,34.44
2023-01-17T17:55:22.536Z,34.18
2023-01-17T17:57:48.916Z,34.15
2023-01-17T18:00:16.269Z,34.24
2023-01-17T18:02:42.607Z,34.46
2023-01-17T18:05:09.035Z,34.07
2023-01-17T18:07:35.403Z,34.33
2023-01-17T18:10:01.772Z,34.36
2023-01-17T18:12:28.132Z,34.34
2023-01-17T18:14:54.521Z,34.15
2023-01-17T18:17:20.924Z,34.27
2023-01-17T18:19:47.302Z,34.33
2023-01-17T18:22:13.665Z,34.28
2023-01-17T18:24:40.228Z,34.33
2023-01-17T18:27:06.625Z,33.96
2023-01-17T18:29:33.124Z,33.98
2023-01-17T18:31:59.521Z,33.93
2023-01-17T18:34:25.878Z,34.34
2023-01-17T18:36:52.270Z,34.30
2023-01-17T18:39:18.681Z,34.11
2023-01-17T18:41:45.050Z,34.02
2023-01-17T18:44:11.816Z,34.00
2023-01-17T18:46:38.245Z,34.16
2023-01-17T18:49:04.648Z,34.04
2023-01-17T18:51:31.048Z,33.99
2023-01-17T18:53:57.417Z,33.85
2023-01-17T18:56:23.771Z,34.00
2023-01-17T18:58:51.164Z,33.75
2023-01-17T19:01:17.664Z,33.74
2023-01-17T19:03:44.132Z,33.70
2023-01-17T19:06:10.484Z,33.68
2023-01-17T19:08:36.874Z,33.95
2023-01-17T19:11:03.236Z,33.91
2023-01-17T19:13:29.632Z,33.70
2023-01-17T19:15:56.002Z,33.84
2023-01-17T19:18:22.349Z,33.63
2023-01-17T19:20:48.726Z,33.65
2023-01-17T19:23:15.114Z,33.63
2023-01-17T19:25:41.501Z,33.57
2023-01-17T19:28:08.011Z,33.42
2023-01-17T19:30:34.403Z,33.72
2023-01-17T19:33:00.779Z,33.44
2023-01-17T19:35:27.324Z,33.44
2023-01-17T19:37:54.035Z,33.43
2023-01-17T19:40:20.624Z,33.52
2023-01-17T19:42:47.008Z,33.35
2023-01-17T19:45:13.400Z,33.46
2023-01-17T19:47:39.772Z,33.50
2023-01-17T19:50:06.164Z,33.28
2023-01-17T19:52:32.525Z,33.48
2023-01-17T19:54:58.885Z,33.45
2023-01-17T19:57:25.257Z,33.47
2023-01-17T19:59:51.614Z,33.23
2023-01-17T20:02:18.105Z,33.16
2023-01-17T20:04:44.485Z,33.22
2023-01-17T20:07:10.855Z,33.30
2023-01-17T20:09:37.215Z,33.09
2023-01-17T20:12:03.664Z,33.28
2023-01-17T20:14:30.136Z,33.44
2023-01-17T20:16:56.504Z,33.40
2023-01-17T20:19:22.890Z,33.15
2023-01-17T20:21:49.275Z,33.18
2023-01-17T20:24:15.627Z,33.43
2023-01-17T20:26:41.999Z,33.06
2023-01-17T20:29:08.384Z,33.24
2023-01-17T20:31:34.789Z,33.37
2023-01-17T20:34:01.177Z,33.34
2023-01-17T20:36:27.565Z,33.16
2023-01-17T20:38:53.920Z,33.37
2023-01-17T20:41:20.396Z,33.27
2023-01-17T20:43:46.743Z,33.14
2023-01-17T20:46:13.285Z,33.15
2023-01-17T20:48:39.739Z,33.23
2023-01-17T20:51:06.103Z,32.91
2023-01-17T20:53:32.466Z,33.08
2023-01-17T20:55:58.858Z,33.05
2023-01-17T20:58:25.201Z,32.85
2023-01-17T21:00:51.611Z,33.25
2023-01-17T21:03:18.011Z,33.23
2023-01-17T21:05:44.366Z,33.14
2023-01-17T21:08:10.713Z,33.18
2023-01-17T21:10:37.101Z,32.98
2023-01-17T21:13:03.461Z,32.97
2023-01-17T21:15:29.905Z,33.02
2023-01-17T21:17:56.543Z,32.84
2023-01-17T21:20:23.130Z,32.67
2023-01-17T21:22:49.487Z,33.05
2023-01-17T21:25:15.871Z,32.98
2023-01-17T21:27:42.239Z,32.81
2023-01-17T21:30:08.734Z,32.99
2023-01-17T21:32:35.225Z,32.93
2023-01-17T21:35:01.600Z,32.84
2023-01-17T21:37:27.993Z,32.84
2023-01-17T21:39:54.469Z,32.89
2023-01-17T21:42:20.849Z,32.69
2023-01-17T21:44:47.212Z,32.75
2023-01-17T21:47:13.648Z,32.81
2023-01-17T21:49:40.034Z,32.91
2023-01-17T21:52:06.386Z,32.72
2023-01-17T21:54:32.734Z,32.51
2023-01-17T21:56:59.106Z,32.74
2023-01-17T21:59:25.495Z,32.54
2023-01-17T22:01:51.868Z,32.52
2023-01-17T22:04:18.244Z,32.49
2023-01-17T22:06:44.630Z,32.39
2023-01-17T22:09:11.030Z,32.66
2023-01-17T22:11:37.397Z,32.63
2023-01-17T22:14:03.775Z,32.58
2023-01-17T22:16:30.157Z,32.52
2023-01-17T22:18:56.551Z,32.40
2023-01-17T22:21:22.954Z,32.51
2023-01-17T22:23:49.326Z,32.63
2023-01-17T22:26:15.685Z,32.29
2023-01-17T22:28:42.151Z,32.29
2023-01-17T22:31:08.563Z,32.32
2023-01-17T22:33:34.944Z,32.08
2023-01-17T22:36:01.319Z,32.08
2023-01-17T22:38:27.678Z,32.25
2023-01-17T22:40:54.164Z,31.98
2023-01-17T22:43:20.525Z,31.93
2023-01-17T22:45:46.907Z,32.39
2023-01-17T22:48:13.291Z,32.23
2023-01-17T22:50:39.650Z,32.10
2023-01-17T22:53:06.004Z,32.03
2023-01-17T22:55:32.493Z,31.84
2023-01-17T22:57:58.841Z,32.26
2023-01-17T23:00:25.216Z,31.71
2023-01-17T23:02:51.617Z,32.04
2023-01-17T23:05:18.042Z,31.87
2023-01-17T23:07:44.384Z,31.88
2023-01-17T23:10:10.723Z,31.76
2023-01-17T23:12:37.211Z,31.76
2023-01-17T23:15:03.568Z,31.80
2023-01-17T23:17:29.908Z,31.70
2023-01-17T23:19:56.298Z,31.53
2023-01-17T23:22:22.698Z,31.51
2023-01-17T23:24:49.081Z,31.60
2023-01-17T23:27:15.437Z,31.76
2023-01-17T23:29:41.781Z,31.56
2023-01-17T23:32:08.154Z,31.62
2023-01-17T23:34:34.510Z,31.46
2023-01-17T23:37:00.891Z,31.37
2023-01-17T23:39:28.571Z,31.35
2023-01-17T23:41:55.045Z,31.26
2023-01-17T23:44:21.387Z,30.95
2023-01-17T23:46:47.822Z,31.23
2023-01-17T23:49:14.213Z,31.57
2023-01-17T23:51:40.602Z,31.22
2023-01-17T23:54:06.981Z,31.32
2023-01-17T23:56:33.361Z,31.05
2023-01-17T23:58:59.703Z,30.98
